La rose des vents
Données météo: Semaine 13/04/26 - 19/04/26 (S 16)
Date Horaire Temp. E. Hum. E. P.atmo. Pluie Vent Ø 1mn Direction Ensoleilleme Ev.Tr. Solaire P. de rosée Temp au vent Rafales
13/04/2026 00:00 16,1 °C 71 % 1004,3 hPa 0,0 mm 0,0 km/h (0 Bft) - - 0,00 h 0,025 mm 0 W/m² 10,8 °C 16,1 °C 0,0 km/h (0 Bft)
13/04/2026 01:00 16,1 °C 69 % 1004,0 hPa 0,0 mm 0,0 km/h (0 Bft) - - 0,00 h 0,025 mm 0 W/m² 10,5 °C 16,1 °C 0,0 km/h (0 Bft)
13/04/2026 02:00 16,5 °C 65 % 1003,4 hPa 0,0 mm 0,0 km/h (0 Bft) - - 0,00 h 0,025 mm 0 W/m² 9,8 °C 16,5 °C 0,0 km/h (0 Bft)
13/04/2026 03:00 16,5 °C 62 % 1002,6 hPa 0,0 mm 0,0 km/h (0 Bft) - - 0,00 h 0,025 mm 0 W/m² 9,1 °C 16,5 °C 0,0 km/h (0 Bft)
13/04/2026 04:00 16,2 °C 61 % 1001,9 hPa 0,0 mm 0,0 km/h (0 Bft) - - 0,00 h 0,025 mm 0 W/m² 8,7 °C 16,2 °C 0,0 km/h (0 Bft)
13/04/2026 05:00 16,1 °C 59 % 1001,0 hPa 0,0 mm 0,0 km/h (0 Bft) - - 0,00 h 0,025 mm 0 W/m² 8,1 °C 16,1 °C 0,0 km/h (0 Bft)
13/04/2026 06:00 17,1 °C 54 % 1000,0 hPa 0,0 mm 0,0 km/h (0 Bft) - - 0,00 h 0,025 mm 0 W/m² 7,6 °C 17,1 °C 0,0 km/h (0 Bft)
13/04/2026 07:00 17,6 °C 51 % 1000,1 hPa 0,0 mm 0,0 km/h (0 Bft) - - 0,00 h 0,000 mm 14 W/m² 7,3 °C 17,6 °C 0,0 km/h (0 Bft)
13/04/2026 08:00 18,1 °C 50 % 1000,5 hPa 0,0 mm 0,0 km/h (0 Bft) - - 0,00 h 0,025 mm 42 W/m² 7,6 °C 18,1 °C 0,0 km/h (0 Bft)
13/04/2026 09:00 18,8 °C 52 % 1000,4 hPa 0,0 mm 0,0 km/h (0 Bft) - - 0,00 h 0,025 mm 127 W/m² 8,8 °C 18,8 °C 0,0 km/h (0 Bft)
13/04/2026 10:00 19,8 °C 55 % 1000,6 hPa 0,0 mm 0,0 km/h (0 Bft) - - 0,00 h 0,076 mm 210 W/m² 10,6 °C 19,8 °C 0,0 km/h (0 Bft)
13/04/2026 11:00 20,0 °C 57 % 1000,8 hPa 0,0 mm 0,0 km/h (0 Bft) - - 0,00 h 0,127 mm 239 W/m² 11,2 °C 20,0 °C 0,0 km/h (0 Bft)
13/04/2026 12:00 20,9 °C 51 % 1000,6 hPa 0,0 mm 0,0 km/h (0 Bft) - - 0,00 h 0,152 mm 268 W/m² 10,5 °C 20,9 °C 0,0 km/h (0 Bft)
13/04/2026 13:00 21,5 °C 50 % 1000,8 hPa 0,0 mm 0,0 km/h (0 Bft) - - 0,20 h 0,178 mm 258 W/m² 10,7 °C 21,5 °C 0,0 km/h (0 Bft)
13/04/2026 14:00 20,8 °C 54 % 1001,2 hPa 0,0 mm 0,0 km/h (0 Bft) - - 0,00 h 0,152 mm 222 W/m² 11,1 °C 20,8 °C 0,0 km/h (0 Bft)
13/04/2026 15:00 21,4 °C 48 % 1001,1 hPa 0,0 mm 0,0 km/h (0 Bft) - - 0,00 h 0,127 mm 217 W/m² 10,0 °C 21,4 °C 0,0 km/h (0 Bft)
13/04/2026 16:00 20,1 °C 53 % 1001,1 hPa 0,0 mm 0,0 km/h (0 Bft) - - 0,00 h 0,127 mm 121 W/m² 10,1 °C 20,1 °C 0,0 km/h (0 Bft)
13/04/2026 17:00 19,4 °C 59 % 1000,9 hPa 0,0 mm 0,0 km/h (0 Bft) - - 0,00 h 0,076 mm 95 W/m² 11,0 °C 19,4 °C 0,0 km/h (0 Bft)
13/04/2026 18:00 19,1 °C 57 % 1001,2 hPa 0,0 mm 0,0 km/h (0 Bft) - - 0,00 h 0,051 mm 50 W/m² 10,4 °C 19,1 °C 0,0 km/h (0 Bft)
13/04/2026 19:00 17,5 °C 69 % 1002,1 hPa 0,0 mm 0,0 km/h (0 Bft) - - 0,00 h 0,025 mm 34 W/m² 11,8 °C 17,5 °C 0,0 km/h (0 Bft)
13/04/2026 20:00 16,2 °C 75 % 1002,9 hPa 0,0 mm 0,0 km/h (0 Bft) - - 0,00 h 0,025 mm 7 W/m² 11,7 °C 16,2 °C 0,0 km/h (0 Bft)
13/04/2026 21:00 15,7 °C 77 % 1003,7 hPa 0,0 mm 0,0 km/h (0 Bft) - - 0,00 h 0,000 mm 0 W/m² 11,6 °C 15,7 °C 0,0 km/h (0 Bft)
13/04/2026 22:00 15,0 °C 79 % 1004,2 hPa 0,0 mm 0,0 km/h (0 Bft) - - 0,00 h 0,025 mm 0 W/m² 11,3 °C 15,0 °C 0,0 km/h (0 Bft)
13/04/2026 23:00 14,2 °C 81 % 1004,4 hPa 0,0 mm 0,0 km/h (0 Bft) - - 0,00 h 0,025 mm 0 W/m² 11,0 °C 14,2 °C 0,0 km/h (0 Bft)
14/04/2026 00:00 13,4 °C 83 % 1004,8 hPa 0,0 mm 0,0 km/h (0 Bft) - - 0,00 h 0,025 mm 0 W/m² 10,5 °C 13,4 °C 0,0 km/h (0 Bft)
14/04/2026 01:00 12,8 °C 83 % 1005,2 hPa 0,0 mm 0,0 km/h (0 Bft) - - 0,00 h 0,025 mm 0 W/m² 9,9 °C 12,8 °C 0,0 km/h (0 Bft)
14/04/2026 02:00 12,6 °C 81 % 1005,2 hPa 0,0 mm 0,0 km/h (0 Bft) - - 0,00 h 0,025 mm 0 W/m² 9,3 °C 12,6 °C 0,0 km/h (0 Bft)
14/04/2026 03:00 12,6 °C 78 % 1005,2 hPa 0,0 mm 0,0 km/h (0 Bft) - - 0,00 h 0,025 mm 0 W/m² 9,0 °C 12,6 °C 0,0 km/h (0 Bft)
14/04/2026 04:00 12,1 °C 80 % 1005,4 hPa 0,0 mm 0,0 km/h (0 Bft) - - 0,00 h 0,025 mm 0 W/m² 8,6 °C 12,1 °C 0,0 km/h (0 Bft)
14/04/2026 05:00 12,0 °C 80 % 1005,5 hPa 0,0 mm 0,0 km/h (0 Bft) - - 0,00 h 0,025 mm 0 W/m² 8,7 °C 12,0 °C 0,0 km/h (0 Bft)
14/04/2026 06:00 11,9 °C 79 % 1005,8 hPa 0,0 mm 0,0 km/h (0 Bft) - - 0,00 h 0,025 mm 6 W/m² 8,5 °C 11,9 °C 0,0 km/h (0 Bft)
14/04/2026 07:00 11,8 °C 80 % 1006,6 hPa 0,0 mm 0,0 km/h (0 Bft) - - 0,00 h 0,000 mm 32 W/m² 8,5 °C 11,8 °C 0,0 km/h (0 Bft)
14/04/2026 08:00 13,0 °C 80 % 1007,3 hPa 0,0 mm 0,0 km/h (0 Bft) - - 0,00 h 0,025 mm 83 W/m² 9,6 °C 13,0 °C 0,0 km/h (0 Bft)
14/04/2026 09:00 16,0 °C 73 % 1007,8 hPa 0,0 mm 0,0 km/h (0 Bft) - - 0,75 h 0,051 mm 335 W/m² 11,2 °C 16,0 °C 0,0 km/h (0 Bft)
14/04/2026 10:00 20,0 °C 62 % 1008,3 hPa 0,0 mm 0,0 km/h (0 Bft) - - 1,00 h 0,178 mm 546 W/m² 12,3 °C 20,0 °C 0,0 km/h (0 Bft)
14/04/2026 11:00 21,9 °C 56 % 1008,7 hPa 0,0 mm 0,0 km/h (0 Bft) - - 1,00 h 0,330 mm 681 W/m² 12,7 °C 21,9 °C 0,0 km/h (0 Bft)
14/04/2026 12:00 22,0 °C 56 % 1008,9 hPa 0,0 mm 0,0 km/h (0 Bft) - - 0,90 h 0,406 mm 701 W/m² 12,9 °C 22,0 °C 0,0 km/h (0 Bft)
14/04/2026 13:00 20,9 °C 61 % 1009,3 hPa 0,0 mm 0,0 km/h (0 Bft) - - 0,82 h 0,406 mm 679 W/m² 13,1 °C 20,9 °C 0,0 km/h (0 Bft)
14/04/2026 14:00 21,2 °C 57 % 1009,7 hPa 0,0 mm 0,0 km/h (0 Bft) - - 0,90 h 0,406 mm 739 W/m² 12,5 °C 21,2 °C 0,0 km/h (0 Bft)
14/04/2026 15:00 21,2 °C 60 % 1010,0 hPa 0,0 mm 0,0 km/h (0 Bft) - - 0,95 h 0,432 mm 720 W/m² 13,1 °C 21,2 °C 0,0 km/h (0 Bft)
14/04/2026 16:00 19,6 °C 64 % 1010,3 hPa 0,0 mm 0,0 km/h (0 Bft) - - 0,43 h 0,406 mm 369 W/m² 12,5 °C 19,6 °C 0,0 km/h (0 Bft)
14/04/2026 17:00 17,7 °C 70 % 1010,7 hPa 0,0 mm 0,0 km/h (0 Bft) - - 0,00 h 0,229 mm 125 W/m² 12,2 °C 17,7 °C 0,0 km/h (0 Bft)
14/04/2026 18:00 17,2 °C 73 % 1011,0 hPa 0,0 mm 0,0 km/h (0 Bft) - - 0,00 h 0,076 mm 87 W/m² 12,3 °C 17,2 °C 0,0 km/h (0 Bft)
14/04/2026 19:00 16,6 °C 75 % 1011,6 hPa 0,0 mm 0,0 km/h (0 Bft) - - 0,00 h 0,051 mm 33 W/m² 12,1 °C 16,6 °C 0,0 km/h (0 Bft)
14/04/2026 20:00 15,8 °C 77 % 1012,5 hPa 0,0 mm 0,0 km/h (0 Bft) - - 0,02 h 0,025 mm 7 W/m² 11,8 °C 15,8 °C 0,0 km/h (0 Bft)
14/04/2026 21:00 15,1 °C 79 % 1013,1 hPa 0,0 mm 0,0 km/h (0 Bft) - - 0,00 h 0,000 mm 0 W/m² 11,5 °C 15,1 °C 0,0 km/h (0 Bft)
14/04/2026 22:00 14,6 °C 82 % 1013,3 hPa 0,0 mm 0,0 km/h (0 Bft) - - 0,00 h 0,025 mm 0 W/m² 11,5 °C 14,6 °C 0,0 km/h (0 Bft)
14/04/2026 23:00 14,2 °C 83 % 1013,6 hPa 0,0 mm 0,0 km/h (0 Bft) - - 0,00 h 0,025 mm 0 W/m² 11,4 °C 14,2 °C 0,0 km/h (0 Bft)
15/04/2026 00:00 13,7 °C 85 % 1013,6 hPa 0,0 mm 0,0 km/h (0 Bft) - - 0,00 h 0,025 mm 0 W/m² 11,2 °C 13,7 °C 0,0 km/h (0 Bft)
15/04/2026 01:00 13,4 °C 86 % 1013,4 hPa 0,0 mm 0,0 km/h (0 Bft) - - 0,00 h 0,000 mm 0 W/m² 11,0 °C 13,4 °C 0,0 km/h (0 Bft)
15/04/2026 02:00 13,2 °C 84 % 1013,3 hPa 0,0 mm 0,0 km/h (0 Bft) - - 0,00 h 0,000 mm 0 W/m² 10,6 °C 13,2 °C 0,0 km/h (0 Bft)
15/04/2026 03:00 13,1 °C 82 % 1013,3 hPa 0,0 mm 0,0 km/h (0 Bft) - - 0,00 h 0,025 mm 0 W/m² 10,1 °C 13,1 °C 0,0 km/h (0 Bft)
15/04/2026 04:00 12,8 °C 82 % 1013,5 hPa 0,0 mm 0,0 km/h (0 Bft) - - 0,00 h 0,025 mm 0 W/m² 9,8 °C 12,8 °C 0,0 km/h (0 Bft)
15/04/2026 05:00 12,5 °C 82 % 1013,6 hPa 0,0 mm 0,0 km/h (0 Bft) - - 0,00 h 0,025 mm 0 W/m² 9,5 °C 12,5 °C 0,0 km/h (0 Bft)
15/04/2026 06:00 12,4 °C 80 % 1014,0 hPa 0,0 mm 0,0 km/h (0 Bft) - - 0,02 h 0,025 mm 6 W/m² 9,1 °C 12,4 °C 0,0 km/h (0 Bft)
15/04/2026 07:00 12,6 °C 81 % 1014,5 hPa 0,0 mm 0,0 km/h (0 Bft) - - 0,00 h 0,000 mm 21 W/m² 9,4 °C 12,6 °C 0,0 km/h (0 Bft)
15/04/2026 08:00 13,8 °C 80 % 1015,0 hPa 0,0 mm 0,0 km/h (0 Bft) - - 0,00 h 0,025 mm 42 W/m² 10,4 °C 13,8 °C 0,0 km/h (0 Bft)
15/04/2026 09:00 16,9 °C 72 % 1015,5 hPa 0,0 mm 0,0 km/h (0 Bft) - - 0,72 h 0,025 mm 331 W/m² 11,8 °C 16,9 °C 0,0 km/h (0 Bft)
15/04/2026 10:00 21,0 °C 60 % 1015,5 hPa 0,0 mm 0,0 km/h (0 Bft) - - 1,00 h 0,178 mm 564 W/m² 13,0 °C 21,0 °C 0,0 km/h (0 Bft)
15/04/2026 11:00 22,9 °C 56 % 1015,6 hPa 0,0 mm 0,0 km/h (0 Bft) - - 1,00 h 0,330 mm 693 W/m² 13,6 °C 22,9 °C 0,0 km/h (0 Bft)
15/04/2026 12:00 24,0 °C 53 % 1015,4 hPa 0,0 mm 0,0 km/h (0 Bft) - - 1,00 h 0,432 mm 777 W/m² 13,7 °C 24,0 °C 0,0 km/h (0 Bft)
15/04/2026 13:00 24,7 °C 50 % 1015,3 hPa 0,0 mm 0,0 km/h (0 Bft) - - 1,00 h 0,483 mm 804 W/m² 13,4 °C 24,7 °C 0,0 km/h (0 Bft)
15/04/2026 14:00 24,2 °C 46 % 1015,4 hPa 0,0 mm 0,0 km/h (0 Bft) - - 1,00 h 0,508 mm 778 W/m² 11,9 °C 24,2 °C 0,0 km/h (0 Bft)
15/04/2026 15:00 24,0 °C 45 % 1015,4 hPa 0,0 mm 0,0 km/h (0 Bft) - - 1,00 h 0,483 mm 703 W/m² 11,4 °C 24,0 °C 0,0 km/h (0 Bft)
15/04/2026 16:00 24,2 °C 45 % 1015,4 hPa 0,0 mm 0,0 km/h (0 Bft) - - 0,97 h 0,432 mm 565 W/m² 11,5 °C 24,2 °C 0,0 km/h (0 Bft)
15/04/2026 17:00 21,5 °C 51 % 1015,6 hPa 0,0 mm 0,0 km/h (0 Bft) - - 0,00 h 0,356 mm 147 W/m² 11,0 °C 21,5 °C 0,0 km/h (0 Bft)
15/04/2026 18:00 19,9 °C 56 % 1016,1 hPa 0,0 mm 0,0 km/h (0 Bft) - - 0,30 h 0,102 mm 147 W/m² 10,9 °C 19,9 °C 0,0 km/h (0 Bft)
15/04/2026 19:00 19,4 °C 59 % 1016,0 hPa 0,0 mm 0,0 km/h (0 Bft) - - 0,00 h 0,102 mm 26 W/m² 11,1 °C 19,4 °C 0,0 km/h (0 Bft)
15/04/2026 20:00 17,6 °C 69 % 1016,1 hPa 0,0 mm 0,0 km/h (0 Bft) - - 0,00 h 0,025 mm 6 W/m² 11,9 °C 17,6 °C 0,0 km/h (0 Bft)
15/04/2026 21:00 16,8 °C 69 % 1016,6 hPa 0,0 mm 0,0 km/h (0 Bft) - - 0,00 h 0,000 mm 0 W/m² 11,0 °C 16,8 °C 0,0 km/h (0 Bft)
15/04/2026 22:00 16,3 °C 71 % 1016,7 hPa 0,0 mm 0,0 km/h (0 Bft) - - 0,00 h 0,025 mm 0 W/m² 11,1 °C 16,3 °C 0,0 km/h (0 Bft)
15/04/2026 23:00 16,2 °C 70 % 1016,8 hPa 0,0 mm 0,0 km/h (0 Bft) - - 0,00 h 0,025 mm 0 W/m² 10,8 °C 16,2 °C 0,0 km/h (0 Bft)
16/04/2026 00:00 15,6 °C 73 % 1016,4 hPa 0,0 mm 0,0 km/h (0 Bft) - - 0,00 h 0,025 mm 0 W/m² 10,9 °C 15,6 °C 0,0 km/h (0 Bft)
16/04/2026 01:00 15,5 °C 74 % 1016,5 hPa 0,0 mm 0,0 km/h (0 Bft) - - 0,00 h 0,025 mm 0 W/m² 11,0 °C 15,5 °C 0,0 km/h (0 Bft)
16/04/2026 02:00 15,2 °C 74 % 1016,4 hPa 0,0 mm 0,0 km/h (0 Bft) - - 0,00 h 0,025 mm 0 W/m² 10,7 °C 15,2 °C 0,0 km/h (0 Bft)
16/04/2026 03:00 14,8 °C 75 % 1016,1 hPa 0,0 mm 0,0 km/h (0 Bft) - - 0,00 h 0,025 mm 0 W/m² 10,4 °C 14,8 °C 0,0 km/h (0 Bft)
16/04/2026 04:00 14,8 °C 75 % 1016,3 hPa 0,0 mm 0,0 km/h (0 Bft) - - 0,00 h 0,025 mm 0 W/m² 10,4 °C 14,8 °C 0,0 km/h (0 Bft)
16/04/2026 05:00 14,4 °C 76 % 1016,3 hPa 0,0 mm 0,0 km/h (0 Bft) - - 0,00 h 0,025 mm 0 W/m² 10,1 °C 14,4 °C 0,0 km/h (0 Bft)
16/04/2026 06:00 14,2 °C 76 % 1016,5 hPa 0,0 mm 0,0 km/h (0 Bft) - - 0,00 h 0,025 mm 6 W/m² 10,0 °C 14,2 °C 0,0 km/h (0 Bft)
16/04/2026 07:00 14,2 °C 77 % 1016,7 hPa 0,0 mm 0,0 km/h (0 Bft) - - 0,00 h 0,000 mm 20 W/m² 10,2 °C 14,2 °C 0,0 km/h (0 Bft)
16/04/2026 08:00 14,6 °C 78 % 1017,0 hPa 0,0 mm 0,0 km/h (0 Bft) - - 0,00 h 0,025 mm 41 W/m² 10,8 °C 14,6 °C 0,0 km/h (0 Bft)
16/04/2026 09:00 18,0 °C 70 % 1017,2 hPa 0,0 mm 0,0 km/h (0 Bft) - - 0,75 h 0,025 mm 352 W/m² 12,3 °C 18,0 °C 0,0 km/h (0 Bft)
16/04/2026 10:00 22,4 °C 55 % 1017,0 hPa 0,0 mm 0,0 km/h (0 Bft) - - 1,00 h 0,203 mm 571 W/m² 13,0 °C 22,4 °C 0,0 km/h (0 Bft)
16/04/2026 11:00 24,9 °C 48 % 1016,9 hPa 0,0 mm 0,0 km/h (0 Bft) - - 1,00 h 0,356 mm 701 W/m² 12,9 °C 24,9 °C 0,0 km/h (0 Bft)
16/04/2026 12:00 25,6 °C 46 % 1016,8 hPa 0,0 mm 0,0 km/h (0 Bft) - - 1,00 h 0,432 mm 785 W/m² 13,1 °C 25,6 °C 0,0 km/h (0 Bft)
16/04/2026 13:00 26,2 °C 43 % 1016,5 hPa 0,0 mm 0,0 km/h (0 Bft) - - 1,00 h 0,508 mm 817 W/m² 12,7 °C 26,2 °C 0,0 km/h (0 Bft)
16/04/2026 14:00 24,7 °C 48 % 1016,6 hPa 0,0 mm 0,0 km/h (0 Bft) - - 1,00 h 0,533 mm 783 W/m² 12,8 °C 24,7 °C 0,0 km/h (0 Bft)
16/04/2026 15:00 24,7 °C 49 % 1016,7 hPa 0,0 mm 0,0 km/h (0 Bft) - - 1,00 h 0,483 mm 700 W/m² 13,3 °C 24,7 °C 0,0 km/h (0 Bft)
16/04/2026 16:00 24,1 °C 54 % 1016,5 hPa 0,0 mm 0,0 km/h (0 Bft) - - 1,00 h 0,432 mm 570 W/m² 14,2 °C 24,1 °C 0,0 km/h (0 Bft)
16/04/2026 17:00 23,3 °C 55 % 1016,4 hPa 0,0 mm 0,0 km/h (0 Bft) - - 1,00 h 0,356 mm 414 W/m² 13,9 °C 23,3 °C 0,0 km/h (0 Bft)
16/04/2026 18:00 22,3 °C 55 % 1016,4 hPa 0,0 mm 0,0 km/h (0 Bft) - - 0,42 h 0,254 mm 181 W/m² 12,8 °C 22,3 °C 0,0 km/h (0 Bft)
16/04/2026 19:00 20,5 °C 60 % 1016,3 hPa 0,0 mm 0,0 km/h (0 Bft) - - 0,00 h 0,102 mm 46 W/m² 12,6 °C 20,5 °C 0,0 km/h (0 Bft)
16/04/2026 20:00 19,7 °C 61 % 1016,3 hPa 0,0 mm 0,0 km/h (0 Bft) - - 0,02 h 0,025 mm 8 W/m² 11,9 °C 19,7 °C 0,0 km/h (0 Bft)
16/04/2026 21:00 18,8 °C 62 % 1016,7 hPa 0,0 mm 0,0 km/h (0 Bft) - - 0,00 h 0,000 mm 0 W/m² 11,4 °C 18,8 °C 0,0 km/h (0 Bft)
16/04/2026 22:00 18,3 °C 63 % 1016,8 hPa 0,0 mm 0,0 km/h (0 Bft) - - 0,00 h 0,025 mm 0 W/m² 11,2 °C 18,3 °C 0,0 km/h (0 Bft)
16/04/2026 23:00 17,3 °C 67 % 1016,8 hPa 0,0 mm 0,0 km/h (0 Bft) - - 0,00 h 0,025 mm 0 W/m² 11,1 °C 17,3 °C 0,0 km/h (0 Bft)
17/04/2026 00:00 16,6 °C 69 % 1016,8 hPa 0,0 mm 0,0 km/h (0 Bft) - - 0,00 h 0,025 mm 0 W/m² 10,9 °C 16,6 °C 0,0 km/h (0 Bft)
17/04/2026 01:00 16,6 °C 68 % 1016,9 hPa 0,0 mm 0,0 km/h (0 Bft) - - 0,00 h 0,025 mm 0 W/m² 10,7 °C 16,6 °C 0,0 km/h (0 Bft)
17/04/2026 02:00 16,4 °C 69 % 1016,8 hPa 0,0 mm 0,0 km/h (0 Bft) - - 0,00 h 0,025 mm 0 W/m² 10,7 °C 16,4 °C 0,0 km/h (0 Bft)
17/04/2026 03:00 16,1 °C 69 % 1016,7 hPa 0,0 mm 0,0 km/h (0 Bft) - - 0,00 h 0,025 mm 0 W/m² 10,5 °C 16,1 °C 0,0 km/h (0 Bft)
17/04/2026 04:00 15,3 °C 72 % 1016,7 hPa 0,0 mm 0,0 km/h (0 Bft) - - 0,00 h 0,025 mm 0 W/m² 10,3 °C 15,3 °C 0,0 km/h (0 Bft)
17/04/2026 05:00 14,8 °C 75 % 1016,5 hPa 0,0 mm 0,0 km/h (0 Bft) - - 0,00 h 0,025 mm 0 W/m² 10,4 °C 14,8 °C 0,0 km/h (0 Bft)
17/04/2026 06:00 14,8 °C 75 % 1016,6 hPa 0,0 mm 0,0 km/h (0 Bft) - - 0,03 h 0,025 mm 8 W/m² 10,5 °C 14,8 °C 0,0 km/h (0 Bft)
17/04/2026 07:00 15,3 °C 74 % 1017,0 hPa 0,0 mm 0,0 km/h (0 Bft) - - 0,00 h 0,000 mm 32 W/m² 10,8 °C 15,3 °C 0,0 km/h (0 Bft)
17/04/2026 08:00 16,6 °C 73 % 1017,4 hPa 0,0 mm 0,0 km/h (0 Bft) - - 0,00 h 0,025 mm 68 W/m² 11,8 °C 16,6 °C 0,0 km/h (0 Bft)
17/04/2026 09:00 19,3 °C 68 % 1017,5 hPa 0,0 mm 0,0 km/h (0 Bft) - - 0,78 h 0,051 mm 366 W/m² 13,1 °C 19,3 °C 0,0 km/h (0 Bft)
17/04/2026 10:00 23,4 °C 55 % 1017,4 hPa 0,0 mm 0,0 km/h (0 Bft) - - 0,95 h 0,203 mm 560 W/m² 13,9 °C 23,4 °C 0,0 km/h (0 Bft)
17/04/2026 11:00 26,0 °C 46 % 1017,3 hPa 0,0 mm 0,0 km/h (0 Bft) - - 1,00 h 0,356 mm 685 W/m² 13,5 °C 26,0 °C 0,0 km/h (0 Bft)
17/04/2026 12:00 26,8 °C 43 % 1017,1 hPa 0,0 mm 0,0 km/h (0 Bft) - - 1,00 h 0,432 mm 714 W/m² 12,9 °C 26,8 °C 0,0 km/h (0 Bft)
17/04/2026 13:00 27,3 °C 42 % 1016,7 hPa 0,0 mm 0,0 km/h (0 Bft) - - 1,00 h 0,457 mm 765 W/m² 13,3 °C 27,3 °C 0,0 km/h (0 Bft)
17/04/2026 14:00 27,2 °C 44 % 1016,7 hPa 0,0 mm 0,0 km/h (0 Bft) - - 1,00 h 0,508 mm 719 W/m² 14,0 °C 27,2 °C 0,0 km/h (0 Bft)
17/04/2026 15:00 26,6 °C 43 % 1016,4 hPa 0,0 mm 0,0 km/h (0 Bft) - - 1,00 h 0,457 mm 632 W/m² 12,8 °C 26,6 °C 0,0 km/h (0 Bft)
17/04/2026 16:00 25,9 °C 43 % 1016,0 hPa 0,0 mm 0,0 km/h (0 Bft) - - 1,00 h 0,406 mm 520 W/m² 12,4 °C 25,9 °C 0,0 km/h (0 Bft)
17/04/2026 17:00 25,5 °C 45 % 1015,7 hPa 0,0 mm 0,0 km/h (0 Bft) - - 1,00 h 0,330 mm 359 W/m² 12,7 °C 25,5 °C 0,0 km/h (0 Bft)
17/04/2026 18:00 24,1 °C 49 % 1015,6 hPa 0,0 mm 0,0 km/h (0 Bft) - - 0,80 h 0,229 mm 197 W/m² 12,6 °C 24,1 °C 0,0 km/h (0 Bft)
17/04/2026 19:00 22,2 °C 54 % 1015,7 hPa 0,0 mm 0,0 km/h (0 Bft) - - 0,03 h 0,127 mm 44 W/m² 12,3 °C 22,2 °C 0,0 km/h (0 Bft)
17/04/2026 20:00 20,3 °C 55 % 1015,8 hPa 0,0 mm 0,0 km/h (0 Bft) - - 0,13 h 0,025 mm 13 W/m² 11,0 °C 20,3 °C 0,0 km/h (0 Bft)
17/04/2026 21:00 19,1 °C 60 % 1016,0 hPa 0,0 mm 0,0 km/h (0 Bft) - - 0,00 h 0,025 mm 0 W/m² 11,1 °C 19,1 °C 0,0 km/h (0 Bft)
17/04/2026 22:00 18,1 °C 61 % 1016,0 hPa 0,0 mm 0,0 km/h (0 Bft) - - 0,00 h 0,025 mm 0 W/m² 10,4 °C 18,1 °C 0,1 km/h (0 Bft)
17/04/2026 23:00 17,6 °C 62 % 1016,1 hPa 0,0 mm 0,0 km/h (0 Bft) - - 0,00 h 0,025 mm 0 W/m² 10,3 °C 17,6 °C 0,0 km/h (0 Bft)
18/04/2026 00:00 17,2 °C 63 % 1015,7 hPa 0,0 mm 0,0 km/h (0 Bft) - - 0,00 h 0,025 mm 0 W/m² 10,2 °C 17,2 °C 0,0 km/h (0 Bft)
18/04/2026 01:00 17,2 °C 63 % 1015,8 hPa 0,0 mm 0,0 km/h (0 Bft) - - 0,00 h 0,025 mm 0 W/m² 10,2 °C 17,2 °C 0,0 km/h (0 Bft)
18/04/2026 02:00 16,7 °C 65 % 1015,7 hPa 0,0 mm 0,0 km/h (0 Bft) - - 0,00 h 0,025 mm 0 W/m² 10,1 °C 16,7 °C 0,0 km/h (0 Bft)
18/04/2026 03:00 16,0 °C 68 % 1015,7 hPa 0,0 mm 0,0 km/h (0 Bft) - - 0,00 h 0,025 mm 0 W/m² 10,0 °C 16,0 °C 0,0 km/h (0 Bft)
18/04/2026 04:00 15,1 °C 70 % 1015,8 hPa 0,0 mm 0,0 km/h (0 Bft) - - 0,00 h 0,025 mm 0 W/m² 9,7 °C 15,1 °C 0,0 km/h (0 Bft)
18/04/2026 05:00 15,0 °C 71 % 1016,0 hPa 0,0 mm 0,0 km/h (0 Bft) - - 0,00 h 0,025 mm 0 W/m² 9,8 °C 15,0 °C 0,0 km/h (0 Bft)
18/04/2026 06:00 14,6 °C 72 % 1016,2 hPa 0,0 mm 0,0 km/h (0 Bft) - - 0,05 h 0,025 mm 9 W/m² 9,7 °C 14,6 °C 0,0 km/h (0 Bft)
18/04/2026 07:00 15,2 °C 72 % 1016,7 hPa 0,0 mm 0,0 km/h (0 Bft) - - 0,00 h 0,000 mm 31 W/m² 10,1 °C 15,2 °C 0,0 km/h (0 Bft)
18/04/2026 08:00 17,1 °C 70 % 1017,0 hPa 0,0 mm 0,0 km/h (0 Bft) - - 0,00 h 0,025 mm 54 W/m² 11,5 °C 17,1 °C 0,0 km/h (0 Bft)
18/04/2026 09:00 19,7 °C 64 % 1017,2 hPa 0,0 mm 0,0 km/h (0 Bft) - - 0,75 h 0,025 mm 341 W/m² 12,6 °C 19,7 °C 0,0 km/h (0 Bft)
18/04/2026 10:00 23,0 °C 54 % 1017,5 hPa 0,0 mm 0,0 km/h (0 Bft) - - 1,00 h 0,203 mm 555 W/m² 13,3 °C 23,0 °C 0,0 km/h (0 Bft)
18/04/2026 11:00 24,5 °C 53 % 1017,8 hPa 0,0 mm 0,0 km/h (0 Bft) - - 1,00 h 0,330 mm 689 W/m² 14,1 °C 24,5 °C 0,0 km/h (0 Bft)
18/04/2026 12:00 25,2 °C 52 % 1017,7 hPa 0,0 mm 0,0 km/h (0 Bft) - - 1,00 h 0,432 mm 776 W/m² 14,5 °C 25,2 °C 0,0 km/h (0 Bft)
18/04/2026 13:00 25,5 °C 52 % 1017,4 hPa 0,0 mm 0,0 km/h (0 Bft) - - 1,00 h 0,483 mm 807 W/m² 14,9 °C 25,5 °C 0,0 km/h (0 Bft)
18/04/2026 14:00 26,2 °C 47 % 1017,3 hPa 0,0 mm 0,0 km/h (0 Bft) - - 1,00 h 0,508 mm 783 W/m² 14,1 °C 26,2 °C 0,0 km/h (0 Bft)
18/04/2026 15:00 26,3 °C 45 % 1017,0 hPa 0,0 mm 0,0 km/h (0 Bft) - - 1,00 h 0,508 mm 700 W/m² 13,5 °C 26,3 °C 0,0 km/h (0 Bft)
18/04/2026 16:00 25,2 °C 48 % 1016,5 hPa 0,0 mm 0,0 km/h (0 Bft) - - 1,00 h 0,457 mm 569 W/m² 13,5 °C 25,2 °C 0,0 km/h (0 Bft)
18/04/2026 17:00 24,4 °C 54 % 1016,3 hPa 0,0 mm 0,0 km/h (0 Bft) - - 1,00 h 0,356 mm 437 W/m² 14,5 °C 24,4 °C 0,0 km/h (0 Bft)
18/04/2026 18:00 23,0 °C 64 % 1016,0 hPa 0,0 mm 0,0 km/h (0 Bft) - - 0,70 h 0,279 mm 192 W/m² 15,7 °C 23,0 °C 0,0 km/h (0 Bft)
18/04/2026 19:00 20,6 °C 74 % 1015,9 hPa 0,0 mm 0,0 km/h (0 Bft) - - 0,00 h 0,127 mm 38 W/m² 15,8 °C 20,6 °C 0,0 km/h (0 Bft)
18/04/2026 20:00 18,4 °C 82 % 1016,1 hPa 0,0 mm 0,0 km/h (0 Bft) - - 0,02 h 0,025 mm 9 W/m² 15,2 °C 18,4 °C 0,0 km/h (0 Bft)
18/04/2026 21:00 17,0 °C 89 % 1016,2 hPa 0,0 mm 0,0 km/h (0 Bft) - - 0,00 h 0,000 mm 0 W/m² 15,1 °C 17,0 °C 0,0 km/h (0 Bft)
18/04/2026 22:00 16,2 °C 90 % 1016,3 hPa 0,0 mm 0,0 km/h (0 Bft) - - 0,00 h 0,000 mm 0 W/m² 14,6 °C 16,2 °C 0,0 km/h (0 Bft)
18/04/2026 23:00 15,7 °C 91 % 1016,1 hPa 0,0 mm 0,0 km/h (0 Bft) - - 0,00 h 0,000 mm 0 W/m² 14,2 °C 15,7 °C 0,0 km/h (0 Bft)
19/04/2026 00:00 15,2 °C 90 % 1015,7 hPa 0,0 mm 0,0 km/h (0 Bft) - - 0,00 h 0,000 mm 0 W/m² 13,5 °C 15,2 °C 0,0 km/h (0 Bft)
19/04/2026 01:00 15,2 °C 84 % 1015,5 hPa 0,0 mm 0,0 km/h (0 Bft) - - 0,00 h 0,000 mm 0 W/m² 12,6 °C 15,2 °C 0,0 km/h (0 Bft)
19/04/2026 02:00 15,3 °C 79 % 1014,9 hPa 0,0 mm 0,0 km/h (0 Bft) - - 0,00 h 0,025 mm 0 W/m² 11,8 °C 15,3 °C 0,0 km/h (0 Bft)
19/04/2026 03:00 15,5 °C 76 % 1014,4 hPa 0,0 mm 0,0 km/h (0 Bft) - - 0,00 h 0,025 mm 0 W/m² 11,3 °C 15,5 °C 0,0 km/h (0 Bft)
19/04/2026 04:00 14,8 °C 78 % 1014,5 hPa 0,0 mm 0,0 km/h (0 Bft) - - 0,00 h 0,025 mm 0 W/m² 10,9 °C 14,8 °C 0,0 km/h (0 Bft)
19/04/2026 05:00 14,2 °C 82 % 1014,4 hPa 0,0 mm 0,0 km/h (0 Bft) - - 0,00 h 0,025 mm 0 W/m² 11,2 °C 14,2 °C 0,0 km/h (0 Bft)
19/04/2026 06:00 13,9 °C 84 % 1014,4 hPa 0,0 mm 0,0 km/h (0 Bft) - - 0,05 h 0,025 mm 10 W/m² 11,3 °C 13,9 °C 0,0 km/h (0 Bft)
19/04/2026 07:00 13,5 °C 87 % 1014,6 hPa 0,0 mm 0,0 km/h (0 Bft) - - 0,00 h 0,000 mm 37 W/m² 11,4 °C 13,5 °C 0,0 km/h (0 Bft)
19/04/2026 08:00 14,6 °C 91 % 1014,9 hPa 0,0 mm 0,0 km/h (0 Bft) - - 0,00 h 0,025 mm 59 W/m² 13,1 °C 14,6 °C 0,0 km/h (0 Bft)
19/04/2026 09:00 17,2 °C 85 % 1015,0 hPa 0,0 mm 0,0 km/h (0 Bft) - - 0,72 h 0,025 mm 326 W/m² 14,6 °C 17,2 °C 0,0 km/h (0 Bft)
19/04/2026 10:00 19,0 °C 82 % 1015,0 hPa 0,0 mm 0,0 km/h (0 Bft) - - 0,43 h 0,178 mm 370 W/m² 15,8 °C 19,0 °C 0,0 km/h (0 Bft)
19/04/2026 11:00 20,8 °C 75 % 1015,2 hPa 0,0 mm 0,0 km/h (0 Bft) - - 0,88 h 0,203 mm 701 W/m² 16,2 °C 20,8 °C 0,0 km/h (0 Bft)
19/04/2026 12:00 21,1 °C 73 % 1015,0 hPa 0,0 mm 0,0 km/h (0 Bft) - - 0,53 h 0,381 mm 487 W/m² 16,1 °C 21,1 °C 0,0 km/h (0 Bft)
19/04/2026 13:00 20,4 °C 76 % 1014,9 hPa 0,0 mm 0,0 km/h (0 Bft) - - 0,53 h 0,279 mm 497 W/m² 16,1 °C 20,4 °C 0,0 km/h (0 Bft)
19/04/2026 14:00 20,2 °C 76 % 1014,4 hPa 0,0 mm 0,0 km/h (0 Bft) - - 0,28 h 0,279 mm 411 W/m² 15,9 °C 20,2 °C 0,0 km/h (0 Bft)
19/04/2026 15:00 21,3 °C 73 % 1013,9 hPa 0,0 mm 0,0 km/h (0 Bft) - - 0,98 h 0,254 mm 721 W/m² 16,2 °C 21,3 °C 0,0 km/h (0 Bft)
19/04/2026 16:00 21,2 °C 72 % 1013,6 hPa 0,0 mm 0,0 km/h (0 Bft) - - 1,00 h 0,381 mm 612 W/m² 16,0 °C 21,2 °C 0,0 km/h (0 Bft)
19/04/2026 17:00 20,6 °C 73 % 1013,3 hPa 0,0 mm 0,0 km/h (0 Bft) - - 0,52 h 0,305 mm 274 W/m² 15,7 °C 20,6 °C 0,0 km/h (0 Bft)
19/04/2026 18:00 19,3 °C 76 % 1013,3 hPa 0,0 mm 0,0 km/h (0 Bft) - - 0,53 h 0,152 mm 186 W/m² 15,0 °C 19,3 °C 0,0 km/h (0 Bft)
19/04/2026 19:00 17,8 °C 82 % 1013,1 hPa 0,0 mm 0,0 km/h (0 Bft) - - 0,00 h 0,102 mm 38 W/m² 14,7 °C 17,8 °C 0,0 km/h (0 Bft)
19/04/2026 20:00 16,3 °C 87 % 1013,3 hPa 0,0 mm 0,0 km/h (0 Bft) - - 0,00 h 0,025 mm 7 W/m² 14,1 °C 16,3 °C 0,0 km/h (0 Bft)
19/04/2026 21:00 15,3 °C 89 % 1013,3 hPa 0,0 mm 0,0 km/h (0 Bft) - - 0,00 h 0,000 mm 0 W/m² 13,5 °C 15,3 °C 0,0 km/h (0 Bft)
19/04/2026 22:00 14,7 °C 91 % 1013,3 hPa 0,0 mm 0,0 km/h (0 Bft) - - 0,00 h 0,000 mm 0 W/m² 13,2 °C 14,7 °C 0,0 km/h (0 Bft)
19/04/2026 23:00 14,3 °C 92 % 1013,2 hPa 0,0 mm 0,0 km/h (0 Bft) - - 0,00 h 0,000 mm 0 W/m² 13,0 °C 14,3 °C 0,0 km/h (0 Bft)
Min-Date _ 14/04/26 17/04/26 13/04/26 - 13/04/26 - - - - 13/04/26 14/04/26 13/04/26
_ Min-Heure 07:05 13:19 06:30 - 00:00 - - - - 06:58 07:05 00:00
Minimum _ 11,7 °C 40 % 999,9 hPa - 0,0 km/h (0 Bft) - - - - 6,7 °C 11,7 °C 0,0 km/h (0 Bft)
Max-Date _ 17/04/26 19/04/26 18/04/26 13/04/26 13/04/26 - 17/04/26 16/04/26 14/04/26 19/04/26 17/04/26 14/04/26
_ Max-Heure 14:07 23:42 11:00 00:00 00:00 - 11:04 14:00 13:34 11:25 14:07 08:54
Maximum _ 27,7 °C 93 % 1017,8 hPa 0,0 mm 0,0 km/h
- - (0 Bft)
- 0,05 h 0,533 mm 1051 W/m² 16,7 °C 27,7 °C 1,6 km/h
S (1 Bft)
Moyenne _ 18,4 °C 67 % 1012,8 hPa #0,0 mm 0,0 km/h (0 Bft) - - #49:52 h #22,755 mm 337 W/m² 11,8 °C 18,4 °C 0,0 km/h (0 Bft)
Roquefort les pins